Time;durP1;ratioP1;P1;durP2;ratioP2;P2;SDS_P1;SDS_P2;PMS_P1;PMS_P2;Temp;Humidity;BMP_temperature;BMP_pressure;BME280_temperature;BME280_humidity;BME280_pressure;Samples;Min_cycle;Max_cycle;Signal;HPM_P1;HPM_P2
2023/05/23 00:01:06;;;;;;;10.85;6.65;;;18.30;93.90;;;;;;5078699;28;20035;-80
2023/05/23 00:03:32;;;;;;;10.50;6.18;;;18.30;94.00;;;;;;5095334;28;20459;-81
2023/05/23 00:05:58;;;;;;;10.57;6.93;;;18.20;94.20;;;;;;5095530;28;20052;-80
2023/05/23 00:08:24;;;;;;;8.77;5.63;;;18.20;94.30;;;;;;5078822;28;20024;-80
2023/05/23 00:10:50;;;;;;;12.98;7.28;;;18.20;94.40;;;;;;5113992;28;20030;-80
2023/05/23 00:13:16;;;;;;;11.45;6.72;;;18.20;94.40;;;;;;5095803;28;20035;-80
2023/05/23 00:15:42;;;;;;;11.70;7.10;;;18.20;94.50;;;;;;5113919;28;20015;-80
2023/05/23 00:18:09;;;;;;;9.70;6.38;;;18.10;94.60;;;;;;5113619;28;20525;-80
2023/05/23 00:20:36;;;;;;;18.23;7.70;;;18.00;94.80;;;;;;5113935;28;20024;-80
2023/05/23 00:23:02;;;;;;;10.48;5.90;;;18.10;94.90;;;;;;5113416;28;20036;-80
2023/05/23 00:25:33;;;;;;;10.73;5.65;;;18.10;94.70;;;;;;5113325;28;20030;-80
2023/05/23 00:27:59;;;;;;;13.88;7.93;;;18.10;94.80;;;;;;5079568;28;20059;-80
2023/05/23 00:30:25;;;;;;;10.60;6.75;;;18.10;94.90;;;;;;5113490;28;20027;-80
2023/05/23 00:32:53;;;;;;;9.45;6.38;;;18.10;95.00;;;;;;5078666;28;20043;-81
2023/05/23 00:35:19;;;;;;;11.00;6.10;;;18.00;95.20;;;;;;5113351;28;20024;-80
2023/05/23 00:37:46;;;;;;;12.38;6.20;;;18.00;95.30;;;;;;5113273;28;20110;-80
2023/05/23 00:40:12;;;;;;;9.60;5.93;;;18.00;95.30;;;;;;5113799;28;20023;-81
2023/05/23 00:42:38;;;;;;;10.27;6.22;;;18.00;95.40;;;;;;5095640;28;20032;-81
2023/05/23 00:45:05;;;;;;;15.05;7.18;;;18.00;95.50;;;;;;5113695;28;20038;-81
2023/05/23 00:47:31;;;;;;;10.15;6.85;;;18.00;95.70;;;;;;5113327;28;20476;-80
2023/05/23 00:49:56;;;;;;;14.60;7.25;;;17.90;96.10;;;;;;5096031;28;20056;-80
2023/05/23 00:52:22;;;;;;;18.00;8.15;;;17.80;96.60;;;;;;5117590;28;20043;-80
2023/05/23 00:54:48;;;;;;;18.52;9.15;;;17.70;96.80;;;;;;5099578;28;20054;-80
2023/05/23 00:57:14;;;;;;;17.20;8.32;;;17.60;97.20;;;;;;5099257;28;20379;-81
2023/05/23 00:59:40;;;;;;;17.00;8.70;;;17.50;97.40;;;;;;5117202;28;20080;-80
2023/05/23 01:02:07;;;;;;;14.27;7.63;;;17.50;97.70;;;;;;5081921;28;20043;-81
2023/05/23 01:04:34;;;;;;;16.35;7.70;;;17.40;98.10;;;;;;5098261;28;20080;-81
2023/05/23 01:07:00;;;;;;;17.92;7.80;;;17.40;98.20;;;;;;5099041;28;20036;-81
2023/05/23 01:09:27;;;;;;;13.05;7.60;;;17.40;98.30;;;;;;5117071;28;20028;-81
2023/05/23 01:12:10;;;;;;;14.18;7.95;;;17.30;98.60;;;;;;5081901;28;20032;-81
2023/05/23 01:15:05;;;;;;;15.00;8.63;;;17.20;98.80;;;;;;5098957;28;20032;-81
2023/05/23 01:17:41;;;;;;;14.88;7.05;;;17.20;98.90;;;;;;5109588;28;20054;-81
2023/05/23 01:20:11;;;;;;;13.80;6.68;;;17.10;99.10;;;;;;5098899;28;20034;-81
2023/05/23 01:23:04;;;;;;;13.15;6.88;;;17.20;99.10;;;;;;5116698;28;20089;-81
2023/05/23 01:26:07;;;;;;;11.90;6.53;;;17.20;99.00;;;;;;5098847;28;20085;-81
2023/05/23 01:28:42;;;;;;;;;;;17.20;99.10;;;;;;5098837;28;20027;-81
2023/05/23 01:31:10;;;;;;;13.30;6.93;;;17.20;99.40;;;;;;5116557;28;19911;-80
2023/05/23 01:33:38;;;;;;;12.65;6.88;;;17.20;99.20;;;;;;5116476;28;20031;-81
2023/05/23 01:36:05;;;;;;;13.30;7.20;;;17.20;99.40;;;;;;5098554;28;20030;-80
2023/05/23 01:38:31;;;;;;;11.75;5.85;;;17.20;99.50;;;;;;5098203;28;20046;-81
2023/05/23 01:40:57;;;;;;;15.00;6.35;;;17.20;99.50;;;;;;5116236;28;20107;-81
2023/05/23 01:43:24;;;;;;;11.95;6.40;;;17.30;99.40;;;;;;5098381;28;20389;-81
2023/05/23 01:45:52;;;;;;;11.43;5.88;;;17.30;99.30;;;;;;5081433;28;20480;-81
2023/05/23 01:48:20;;;;;;;10.82;5.57;;;17.40;99.20;;;;;;5098255;28;20027;-81
2023/05/23 01:50:46;;;;;;;10.43;5.88;;;17.40;99.00;;;;;;5098000;28;20034;-81
2023/05/23 01:53:14;;;;;;;14.07;6.60;;;17.40;98.80;;;;;;5116468;28;20462;-81
2023/05/23 01:55:41;;;;;;;12.23;6.22;;;17.30;98.80;;;;;;5098104;28;20486;-80
2023/05/23 01:58:07;;;;;;;11.38;6.47;;;17.30;98.80;;;;;;5116116;28;20388;-80
2023/05/23 02:00:33;;;;;;;10.45;5.80;;;17.30;98.90;;;;;;5080892;28;20051;-80
2023/05/23 02:02:59;;;;;;;9.73;5.40;;;17.30;98.90;;;;;;5096482;28;20070;-80
2023/05/23 02:05:26;;;;;;;8.25;5.85;;;17.30;98.90;;;;;;5076887;28;20056;-81
2023/05/23 02:07:51;;;;;;;11.20;6.60;;;17.30;98.80;;;;;;5077186;28;20067;-81
2023/05/23 02:10:18;;;;;;;18.63;6.50;;;17.20;99.00;;;;;;5095826;28;20067;-80
2023/05/23 02:12:44;;;;;;;12.38;6.75;;;17.10;99.20;;;;;;5077127;28;20093;-80
2023/05/23 02:15:10;;;;;;;10.18;6.03;;;17.10;99.60;;;;;;5095033;28;20024;-81
2023/05/23 02:17:37;;;;;;;10.15;6.35;;;17.10;99.40;;;;;;5060749;28;20036;-81
2023/05/23 02:20:05;;;;;;;11.18;6.60;;;17.10;99.60;;;;;;5077343;28;20376;-81
2023/05/23 02:22:30;;;;;;;10.45;6.22;;;17.00;99.80;;;;;;5077556;28;20032;-81
2023/05/23 02:24:56;;;;;;;12.70;5.75;;;17.00;99.90;;;;;;5095159;28;20024;-80
2023/05/23 02:27:22;;;;;;;11.48;6.55;;;17.00;99.80;;;;;;5093969;28;20122;-81
2023/05/23 02:29:47;;;;;;;13.25;6.15;;;17.00;99.80;;;;;;5094888;28;20028;-81
2023/05/23 02:32:13;;;;;;;11.50;6.88;;;17.00;99.90;;;;;;5077171;28;20036;-81
2023/05/23 02:34:39;;;;;;;12.93;6.93;;;16.90;99.90;;;;;;5094854;28;20024;-80
2023/05/23 02:37:05;;;;;;;9.82;6.53;;;16.90;99.90;;;;;;5076745;28;20030;-80
2023/05/23 02:39:30;;;;;;;15.07;7.20;;;16.80;99.90;;;;;;5094806;28;20032;-80
2023/05/23 02:41:56;;;;;;;12.90;6.50;;;16.80;99.90;;;;;;5060210;28;20039;-80
2023/05/23 02:44:21;;;;;;;8.95;5.88;;;16.80;99.90;;;;;;5095028;28;20036;-81
2023/05/23 02:46:47;;;;;;;13.98;6.20;;;16.80;99.90;;;;;;5076074;28;20392;-81
2023/05/23 02:49:13;;;;;;;15.77;6.35;;;16.90;99.90;;;;;;5094632;28;20070;-81
2023/05/23 02:51:38;;;;;;;11.88;6.45;;;17.00;99.90;;;;;;5077111;28;20028;-80
2023/05/23 02:54:04;;;;;;;18.02;7.63;;;17.00;99.90;;;;;;5060153;28;20031;-80
2023/05/23 02:56:30;;;;;;;11.52;6.55;;;17.00;99.90;;;;;;5043437;28;20028;-81
2023/05/23 02:58:56;;;;;;;12.40;6.35;;;17.00;99.90;;;;;;5094750;28;20081;-81
2023/05/23 03:01:22;;;;;;;17.27;7.78;;;17.00;99.90;;;;;;5094583;28;20028;-80
2023/05/23 03:03:47;;;;;;;12.95;6.03;;;17.00;99.90;;;;;;5075754;28;20036;-81
2023/05/23 03:06:13;;;;;;;11.70;6.13;;;17.00;99.90;;;;;;5111265;28;20047;-81
2023/05/23 03:08:42;;;;;;;13.77;6.03;;;17.00;99.90;;;;;;5096256;28;20150;-81
2023/05/23 03:11:08;;;;;;;14.23;6.65;;;17.10;99.90;;;;;;5114942;28;20114;-81
2023/05/23 03:13:34;;;;;;;12.50;5.60;;;17.00;99.90;;;;;;5114766;28;20106;-81
2023/05/23 03:16:01;;;;;;;10.50;5.65;;;17.00;99.90;;;;;;5114790;28;20028;-81
2023/05/23 03:18:26;;;;;;;9.43;5.28;;;16.90;99.90;;;;;;5096343;28;20062;-80
2023/05/23 03:20:52;;;;;;;9.52;5.25;;;17.00;99.90;;;;;;5114446;28;20055;-81
2023/05/23 03:23:18;;;;;;;10.48;4.97;;;17.00;99.90;;;;;;5096499;28;20463;-81
2023/05/23 03:25:43;;;;;;;9.23;4.75;;;17.00;99.90;;;;;;5114680;28;20066;-81
2023/05/23 03:28:11;;;;;;;9.68;4.30;;;17.10;99.90;;;;;;5114669;28;20053;-81
2023/05/23 03:30:37;;;;;;;9.05;4.35;;;17.10;99.80;;;;;;5096652;28;20032;-81
2023/05/23 03:33:02;;;;;;;6.75;4.07;;;17.00;99.70;;;;;;5114795;28;20106;-81
2023/05/23 03:35:28;;;;;;;9.80;3.85;;;17.00;99.60;;;;;;5113632;28;20515;-81
2023/05/23 03:37:54;;;;;;;9.13;4.18;;;17.00;99.60;;;;;;5114381;28;20028;-80
2023/05/23 03:40:20;;;;;;;10.43;3.72;;;17.00;99.70;;;;;;5096300;28;20028;-80
2023/05/23 03:42:47;;;;;;;6.90;3.60;;;16.90;99.70;;;;;;5096318;28;20085;-81
2023/05/23 03:45:13;;;;;;;8.23;4.22;;;17.00;99.60;;;;;;5114430;28;20372;-80
2023/05/23 03:47:38;;;;;;;7.47;3.92;;;17.00;99.60;;;;;;5095975;28;20028;-80
2023/05/23 03:50:05;;;;;;;6.88;4.07;;;17.10;99.60;;;;;;5096060;28;20034;-80
2023/05/23 03:52:30;;;;;;;10.75;4.85;;;17.10;99.30;;;;;;5114327;28;20032;-81
2023/05/23 03:54:56;;;;;;;9.00;4.38;;;17.10;99.10;;;;;;5079284;28;20114;-81
2023/05/23 03:57:22;;;;;;;11.48;5.18;;;17.10;99.00;;;;;;5114001;28;20027;-81
2023/05/23 03:59:47;;;;;;;10.70;5.25;;;17.00;98.90;;;;;;5114045;28;20031;-81
2023/05/23 04:02:13;;;;;;;11.43;5.22;;;17.00;99.00;;;;;;5095971;28;20043;-80
2023/05/23 04:04:40;;;;;;;10.00;5.13;;;16.90;99.10;;;;;;5112988;28;20056;-79
2023/05/23 04:07:05;;;;;;;11.88;5.05;;;16.80;99.10;;;;;;5114117;28;20081;-80
2023/05/23 04:09:31;;;;;;;10.10;5.20;;;16.90;99.00;;;;;;5095703;28;20067;-80
2023/05/23 04:11:57;;;;;;;13.73;5.57;;;16.90;99.10;;;;;;5113972;28;20036;-81
2023/05/23 04:14:26;;;;;;;11.57;4.72;;;16.70;99.10;;;;;;5113648;28;20031;-81
2023/05/23 04:16:52;;;;;;;11.50;4.97;;;16.80;99.30;;;;;;5096585;28;20115;-79
2023/05/23 04:19:18;;;;;;;10.18;5.15;;;16.90;99.30;;;;;;5113357;28;20027;-80
2023/05/23 04:21:43;;;;;;;10.80;4.60;;;17.00;98.90;;;;;;5095650;28;20081;-79
2023/05/23 04:24:09;;;;;;;10.20;4.90;;;17.10;98.70;;;;;;5113944;28;20085;-80
2023/05/23 04:26:35;;;;;;;9.18;4.68;;;17.20;98.50;;;;;;5117805;28;20475;-80
2023/05/23 04:29:03;;;;;;;10.80;5.75;;;17.20;98.40;;;;;;5117851;28;20438;-79
2023/05/23 04:31:28;;;;;;;14.27;5.65;;;17.30;98.20;;;;;;5099656;28;20023;-80
2023/05/23 04:33:55;;;;;;;13.93;5.10;;;17.30;97.90;;;;;;5082131;28;20031;-80
2023/05/23 04:36:22;;;;;;;13.45;5.95;;;17.30;97.70;;;;;;5083170;28;20122;-80
2023/05/23 04:38:48;;;;;;;13.85;6.28;;;17.30;97.60;;;;;;5099326;28;20538;-80
2023/05/23 04:41:15;;;;;;;14.48;5.10;;;17.30;97.50;;;;;;5082507;28;20047;-80
2023/05/23 04:43:41;;;;;;;13.15;5.03;;;17.20;97.40;;;;;;5117493;28;20096;-80
2023/05/23 04:46:08;;;;;;;12.75;5.13;;;17.20;97.40;;;;;;5099724;28;20028;-80
2023/05/23 04:48:35;;;;;;;13.13;4.78;;;17.30;97.40;;;;;;5117857;28;20057;-80
2023/05/23 04:51:05;;;;;;;15.13;5.03;;;17.30;97.40;;;;;;5117463;28;20102;-80
2023/05/23 04:53:30;;;;;;;11.52;5.03;;;17.40;97.30;;;;;;5117557;28;20027;-80
2023/05/23 04:55:56;;;;;;;15.73;5.50;;;17.40;97.00;;;;;;5117469;28;20039;-81
2023/05/23 04:58:21;;;;;;;12.75;5.38;;;17.40;96.90;;;;;;5099391;28;20034;-81
2023/05/23 05:00:47;;;;;;;16.33;5.93;;;17.30;96.70;;;;;;5098865;28;20023;-81
2023/05/23 05:03:13;;;;;;;15.90;6.47;;;17.30;96.70;;;;;;5099074;28;20482;-81
2023/05/23 05:05:39;;;;;;;18.05;6.10;;;17.20;96.90;;;;;;5116894;28;20083;-81
2023/05/23 05:08:05;;;;;;;15.38;5.78;;;17.10;97.00;;;;;;5082255;28;20028;-81
2023/05/23 05:10:30;;;;;;;20.90;6.28;;;17.00;97.00;;;;;;5098360;28;20026;-81
2023/05/23 05:12:56;;;;;;;18.88;6.85;;;17.00;97.30;;;;;;5116937;28;20043;-82
2023/05/23 05:15:22;;;;;;;16.05;6.65;;;16.90;97.50;;;;;;5117084;28;20028;-80
2023/05/23 05:17:48;;;;;;;14.90;6.72;;;16.70;97.60;;;;;;5082572;28;20028;-81
2023/05/23 05:20:14;;;;;;;15.73;6.30;;;16.70;97.80;;;;;;5119377;28;20425;-80
2023/05/23 05:22:41;;;;;;;21.60;6.68;;;16.70;98.00;;;;;;5099752;28;20036;-89
2023/05/23 05:25:07;;;;;;;14.90;6.25;;;16.70;98.00;;;;;;5103639;28;20115;-88
2023/05/23 05:27:33;;;;;;;17.27;6.07;;;16.60;98.20;;;;;;5103204;28;20036;-91
2023/05/23 05:30:03;;;;;;;13.88;5.60;;;16.50;98.30;;;;;;5120654;28;20096;-88
2023/05/23 05:32:30;;;;;;;15.90;5.13;;;16.50;98.30;;;;;;5103715;28;20422;-90
2023/05/23 05:34:56;;;;;;;16.40;5.38;;;16.40;98.40;;;;;;5104533;28;20058;-89
2023/05/23 05:37:21;;;;;;;14.50;4.75;;;16.50;98.50;;;;;;5100704;28;20023;-89
2023/05/23 05:39:47;;;;;;;17.58;5.10;;;16.50;98.30;;;;;;5123175;28;20031;-88
2023/05/23 05:42:13;;;;;;;17.30;6.15;;;16.50;98.50;;;;;;5112046;28;20035;-90
2023/05/23 05:44:38;;;;;;;13.90;5.30;;;16.50;98.50;;;;;;5106030;28;20027;-89
2023/05/23 05:47:04;;;;;;;15.40;5.00;;;16.50;98.60;;;;;;5104631;28;20031;-90
2023/05/23 05:49:30;;;;;;;17.80;4.80;;;16.50;98.70;;;;;;5121955;28;20028;-90
2023/05/23 05:51:56;;;;;;;13.30;4.40;;;16.40;98.80;;;;;;5104273;28;20039;-79
2023/05/23 05:54:21;;;;;;;15.18;4.95;;;16.50;98.80;;;;;;5085477;28;20023;-89
2023/05/23 05:56:47;;;;;;;11.75;3.95;;;16.50;98.40;;;;;;5102584;28;20063;-91
2023/05/23 05:59:13;;;;;;;16.23;5.07;;;16.50;98.20;;;;;;5104342;28;20039;-89
2023/05/23 06:01:39;;;;;;;11.18;4.05;;;16.40;98.20;;;;;;5121015;28;20066;-91
2023/05/23 06:04:05;;;;;;;13.80;3.92;;;16.40;98.10;;;;;;5102004;28;20074;-91
2023/05/23 06:06:31;;;;;;;10.40;4.38;;;16.40;98.00;;;;;;5118023;28;20051;-78
2023/05/23 06:08:56;;;;;;;11.85;3.90;;;16.30;97.90;;;;;;5116551;28;20031;-79
2023/05/23 06:11:22;;;;;;;15.20;4.65;;;16.20;98.00;;;;;;5115872;28;20102;-79
2023/05/23 06:13:48;;;;;;;8.23;3.38;;;16.10;97.80;;;;;;5116326;28;20028;-78
2023/05/23 06:16:14;;;;;;;11.18;3.95;;;16.00;98.00;;;;;;5116072;28;20028;-79
2023/05/23 06:18:40;;;;;;;14.60;4.00;;;16.20;97.90;;;;;;5097822;28;20028;-78
2023/05/23 06:21:05;;;;;;;10.85;3.92;;;16.20;97.40;;;;;;5115943;28;20043;-78
2023/05/23 06:23:31;;;;;;;16.70;5.15;;;16.00;97.60;;;;;;5115262;28;20472;-79
2023/05/23 06:25:58;;;;;;;11.95;3.88;;;16.00;97.50;;;;;;5115431;28;20027;-79
2023/05/23 06:28:24;;;;;;;14.25;3.88;;;16.00;97.10;;;;;;5116028;28;20085;-79
2023/05/23 06:30:50;;;;;;;11.18;3.75;;;16.00;97.00;;;;;;5097652;28;20452;-77
2023/05/23 06:33:15;;;;;;;11.00;3.85;;;16.00;96.80;;;;;;5097464;28;20059;-78
2023/05/23 06:35:42;;;;;;;12.15;3.63;;;16.10;97.00;;;;;;5115558;28;20019;-78
2023/05/23 06:38:07;;;;;;;16.08;4.00;;;16.10;96.30;;;;;;5080501;28;20039;-78
2023/05/23 06:40:33;;;;;;;13.50;3.80;;;16.00;95.90;;;;;;5097409;28;20027;-78
2023/05/23 06:42:59;;;;;;;13.20;3.95;;;16.00;96.10;;;;;;5097625;28;20043;-77
2023/05/23 06:45:25;;;;;;;11.40;3.67;;;16.00;95.80;;;;;;5115665;28;20384;-78
2023/05/23 06:47:50;;;;;;;9.95;3.28;;;16.00;95.80;;;;;;5096723;28;20023;-77
2023/05/23 06:50:18;;;;;;;13.70;3.90;;;16.10;95.80;;;;;;5080527;28;20467;-78
2023/05/23 06:52:45;;;;;;;16.25;4.30;;;16.10;94.90;;;;;;5097515;28;20211;-76
2023/05/23 06:55:16;;;;;;;11.75;3.80;;;16.00;95.00;;;;;;5115266;28;20031;-76
2023/05/23 06:57:43;;;;;;;12.80;4.07;;;16.10;94.60;;;;;;5096896;28;20031;-76
2023/05/23 07:00:09;;;;;;;11.88;3.63;;;16.10;94.20;;;;;;5115153;28;20031;-76
2023/05/23 07:02:35;;;;;;;10.05;3.45;;;16.00;94.10;;;;;;5096786;28;20036;-75
2023/05/23 07:05:00;;;;;;;12.82;3.20;;;16.10;93.90;;;;;;5096160;28;20480;-75
2023/05/23 07:07:26;;;;;;;13.07;3.70;;;16.20;93.60;;;;;;5096464;28;20024;-76
2023/05/23 07:09:52;;;;;;;10.70;4.22;;;16.20;93.00;;;;;;5096832;28;20464;-76
2023/05/23 07:12:17;;;;;;;11.98;3.40;;;16.20;93.10;;;;;;5114403;28;20479;-75
2023/05/23 07:14:43;;;;;;;11.88;3.83;;;16.40;93.00;;;;;;5096741;28;20392;-75
2023/05/23 07:17:09;;;;;;;10.60;3.50;;;16.50;91.90;;;;;;5096396;28;20189;-75
2023/05/23 07:19:34;;;;;;;13.35;3.50;;;16.50;91.40;;;;;;5096882;28;20070;-75
2023/05/23 07:22:00;;;;;;;8.23;2.92;;;16.50;91.50;;;;;;5114722;28;20387;-75
2023/05/23 07:24:26;;;;;;;10.57;3.50;;;16.70;91.50;;;;;;5096371;28;20557;-77
2023/05/23 07:26:51;;;;;;;15.90;3.42;;;16.70;91.10;;;;;;5096248;28;20027;-74
2023/05/23 07:29:17;;;;;;;9.75;3.50;;;16.70;90.50;;;;;;5114593;28;20031;-75
2023/05/23 07:31:43;;;;;;;9.23;3.40;;;16.80;90.80;;;;;;5114426;28;20081;-75
2023/05/23 07:34:08;;;;;;;10.10;3.15;;;16.80;89.50;;;;;;5114369;28;20032;-75
2023/05/23 07:36:36;;;;;;;9.98;3.45;;;16.70;90.30;;;;;;5114888;28;20028;-75
2023/05/23 07:39:02;;;;;;;8.75;3.25;;;16.80;90.10;;;;;;5096748;28;20019;-78
2023/05/23 07:41:28;;;;;;;10.55;3.83;;;16.80;89.90;;;;;;5114031;28;20028;-75
2023/05/23 07:43:54;;;;;;;5.38;2.75;;;16.80;89.70;;;;;;5096300;28;20036;-76
2023/05/23 07:46:21;;;;;;;10.13;3.58;;;16.80;90.20;;;;;;5114013;28;20028;-75
2023/05/23 07:48:47;;;;;;;8.32;3.03;;;16.90;90.00;;;;;;5114215;28;20541;-75
2023/05/23 07:51:13;;;;;;;11.63;3.95;;;17.10;89.90;;;;;;5114792;28;20036;-75
2023/05/23 07:53:38;;;;;;;10.65;3.53;;;17.00;88.80;;;;;;5114272;28;20027;-75
2023/05/23 07:56:05;;;;;;;7.18;2.97;;;17.00;90.00;;;;;;5095978;28;20036;-76
2023/05/23 07:58:31;;;;;;;7.88;2.85;;;17.00;89.50;;;;;;5095705;28;20032;-76
2023/05/23 08:00:57;;;;;;;9.80;3.20;;;17.00;90.00;;;;;;5113069;28;20070;-76
2023/05/23 08:03:23;;;;;;;8.95;2.80;;;16.90;89.70;;;;;;5113632;28;20419;-76
2023/05/23 08:05:48;;;;;;;7.65;2.70;;;16.80;90.40;;;;;;5105939;27;20047;-77
2023/05/23 08:08:15;;;;;;;7.80;2.60;;;16.80;90.80;;;;;;5134460;27;20409;-77
2023/05/23 08:10:40;;;;;;;8.93;2.65;;;17.00;90.90;;;;;;5116312;28;20027;-79
2023/05/23 08:13:09;;;;;;;9.65;2.15;;;16.90;90.60;;;;;;5116566;28;20039;-75
2023/05/23 08:15:34;;;;;;;10.07;2.13;;;16.90;90.80;;;;;;5115747;28;20519;-77
2023/05/23 08:18:00;;;;;;;8.63;2.13;;;16.90;90.80;;;;;;5134467;28;20110;-75
2023/05/23 08:20:30;;;;;;;8.90;2.08;;;16.80;90.40;;;;;;5115941;28;20035;-76
2023/05/23 08:23:00;;;;;;;8.15;1.50;;;16.90;90.60;;;;;;5134543;28;20039;-76
2023/05/23 08:25:30;;;;;;;5.90;1.88;;;16.90;90.40;;;;;;5115665;28;20034;-76
2023/05/23 08:27:57;;;;;;;6.70;1.48;;;17.00;90.40;;;;;;5116008;28;20488;-76
2023/05/23 08:30:24;;;;;;;16.08;1.92;;;17.10;90.20;;;;;;5134282;28;20035;-75
2023/05/23 08:32:54;;;;;;;11.25;1.63;;;17.20;89.70;;;;;;5116006;28;20037;-75
2023/05/23 08:35:20;;;;;;;5.72;1.90;;;17.10;88.90;;;;;;5133746;28;20031;-75
2023/05/23 08:37:46;;;;;;;7.05;1.75;;;17.00;88.80;;;;;;5115801;28;20551;-76
2023/05/23 08:40:20;;;;;;;6.35;1.50;;;17.20;89.70;;;;;;5134406;28;20027;-75
2023/05/23 08:42:47;;;;;;;7.28;1.58;;;17.30;89.40;;;;;;5098917;28;20398;-76
2023/05/23 08:45:13;;;;;;;11.13;1.73;;;17.40;88.70;;;;;;5115794;28;20023;-76
2023/05/23 08:47:44;;;;;;;14.52;1.73;;;17.50;88.10;;;;;;5115532;28;20480;-76
2023/05/23 08:50:17;;;;;;;13.07;1.90;;;17.50;87.60;;;;;;5134054;28;20042;-76
2023/05/23 08:52:49;;;;;;;9.85;1.88;;;17.50;87.80;;;;;;5116558;28;20379;-77
2023/05/23 08:55:16;;;;;;;9.75;2.33;;;17.50;87.30;;;;;;5134114;28;20019;-75
2023/05/23 08:57:42;;;;;;;9.18;2.05;;;17.60;87.50;;;;;;5134016;28;20035;-75
2023/05/23 09:00:13;;;;;;;9.10;2.65;;;17.60;87.40;;;;;;5115720;28;20118;-77
2023/05/23 09:02:42;;;;;;;13.02;2.58;;;17.60;86.80;;;;;;5133705;28;20035;-76
2023/05/23 09:05:08;;;;;;;17.70;2.25;;;17.60;86.50;;;;;;5133463;28;20052;-76
2023/05/23 09:07:35;;;;;;;11.55;2.15;;;17.60;85.80;;;;;;5115669;28;20087;-76
2023/05/23 09:10:02;;;;;;;10.10;2.28;;;17.30;84.60;;;;;;5115294;28;20031;-75
2023/05/23 09:12:28;;;;;;;18.95;3.25;;;17.30;86.10;;;;;;5118740;27;20471;-76
2023/05/23 09:14:54;;;;;;;10.85;2.25;;;17.50;86.40;;;;;;5119373;27;20038;-76
2023/05/23 09:17:21;;;;;;;11.38;2.22;;;17.60;84.50;;;;;;5137487;27;20023;-75
2023/05/23 09:19:47;;;;;;;12.95;2.50;;;17.70;84.60;;;;;;5119223;27;20027;-76
2023/05/23 09:22:12;;;;;;;16.33;2.58;;;17.70;84.30;;;;;;5137241;27;20034;-75
2023/05/23 09:24:38;;;;;;;14.00;2.10;;;17.70;82.60;;;;;;5137061;27;20103;-75
2023/05/23 09:27:06;;;;;;;11.35;2.20;;;17.70;83.50;;;;;;5102132;27;20027;-75
2023/05/23 09:29:31;;;;;;;7.85;1.88;;;17.60;82.60;;;;;;5118931;27;20034;-76
2023/05/23 09:32:13;;;;;;;15.32;3.03;;;17.60;82.40;;;;;;5137282;27;20110;-76
2023/05/23 09:34:58;;;;;;;12.70;2.15;;;17.60;83.50;;;;;;5136741;27;20486;-76
2023/05/23 09:37:30;;;;;;;10.70;2.00;;;17.70;82.70;;;;;;5137243;27;20030;-75
2023/05/23 09:39:57;;;;;;;12.57;2.55;;;17.80;82.70;;;;;;5119071;27;20031;-76
2023/05/23 09:42:23;;;;;;;13.23;2.53;;;17.80;80.80;;;;;;5118680;27;20035;-75
2023/05/23 09:44:49;;;;;;;10.77;2.20;;;17.80;81.20;;;;;;5118547;27;20364;-75
2023/05/23 09:47:16;;;;;;;11.70;2.13;;;17.70;82.60;;;;;;5118526;27;20110;-76
2023/05/23 09:49:46;;;;;;;10.25;2.03;;;17.80;82.00;;;;;;5118475;27;20023;-76
2023/05/23 09:52:12;;;;;;;13.30;3.05;;;17.90;82.60;;;;;;5136505;27;20059;-76
2023/05/23 09:54:39;;;;;;;13.00;2.28;;;18.10;82.90;;;;;;5136578;27;20117;-76
2023/05/23 09:57:09;;;;;;;13.07;2.65;;;18.40;82.30;;;;;;5118824;27;20131;-76
2023/05/23 09:59:38;;;;;;;10.82;2.35;;;18.10;78.80;;;;;;5118562;27;20464;-76
2023/05/23 10:02:12;;;;;;;14.75;2.47;;;18.30;80.10;;;;;;5136926;27;20456;-76
2023/05/23 10:04:42;;;;;;;9.27;2.13;;;18.40;79.70;;;;;;5117852;27;20079;-77
2023/05/23 10:07:18;;;;;;;9.73;2.00;;;18.60;78.30;;;;;;5118319;27;20383;-76
2023/05/23 10:09:53;;;;;;;11.27;2.70;;;18.80;77.60;;;;;;5118261;27;20056;-77
2023/05/23 10:12:31;;;;;;;8.65;2.10;;;19.10;77.30;;;;;;5136687;27;20031;-77
2023/05/23 10:15:02;;;;;;;8.90;2.40;;;19.40;75.00;;;;;;5136409;27;20056;-77
2023/05/23 10:17:56;;;;;;;10.10;2.30;;;19.60;75.10;;;;;;5136649;27;20024;-77
2023/05/23 10:20:27;;;;;;;12.25;2.50;;;19.70;73.20;;;;;;5118078;27;20109;-77
2023/05/23 10:22:53;;;;;;;12.52;2.17;;;19.70;70.80;;;;;;5117038;27;20471;-76
2023/05/23 10:25:19;;;;;;;10.68;2.53;;;19.40;71.00;;;;;;5136197;27;20031;-76
2023/05/23 10:27:48;;;;;;;10.25;2.40;;;19.30;72.40;;;;;;5117870;27;20419;-77
2023/05/23 10:30:14;;;;;;;11.05;2.33;;;19.60;73.20;;;;;;5136136;27;20019;-76
2023/05/23 10:32:41;;;;;;;10.32;2.25;;;19.80;74.20;;;;;;5136074;27;20031;-77
2023/05/23 10:35:11;;;;;;;10.82;2.00;;;19.90;71.20;;;;;;5100380;27;20114;-75
2023/05/23 10:37:46;;;;;;;10.75;2.15;;;19.90;69.60;;;;;;5135837;27;20403;-76
2023/05/23 10:40:37;;;;;;;10.00;2.40;;;19.90;71.60;;;;;;5135893;27;20031;-76
2023/05/23 10:43:26;;;;;;;11.38;2.60;;;20.10;69.50;;;;;;5066302;27;20047;-77
2023/05/23 10:45:51;;;;;;;9.73;2.42;;;20.10;68.50;;;;;;5103715;27;20035;-76
2023/05/23 10:48:34;;;;;;;12.20;2.58;;;20.10;69.70;;;;;;5077523;28;20486;-75
2023/05/23 10:51:03;;;;;;;;;;;20.30;70.60;;;;;;5113998;28;20024;-77
2023/05/23 10:53:31;;;;;;;11.02;2.45;;;20.30;70.40;;;;;;5114489;28;20268;-76
2023/05/23 10:55:57;;;;;;;12.98;2.50;;;20.40;71.10;;;;;;5094992;28;20051;-76
2023/05/23 10:58:23;;;;;;;10.35;2.20;;;20.60;70.70;;;;;;5117701;27;20164;-76
2023/05/23 11:00:58;;;;;;;14.30;2.50;;;20.70;69.60;;;;;;5080294;28;20519;-76
2023/05/23 11:03:46;;;;;;;10.25;2.25;;;20.60;67.00;;;;;;5119801;27;20036;-76
2023/05/23 11:06:38;;;;;;;7.13;1.92;;;20.40;67.20;;;;;;5113149;28;20432;-76
2023/05/23 11:09:11;;;;;;;7.13;2.33;;;20.50;69.00;;;;;;5114437;28;20111;-77
2023/05/23 11:12:01;;;;;;;10.55;2.38;;;20.40;68.50;;;;;;5096082;28;20107;-76
2023/05/23 11:14:36;;;;;;;12.30;2.53;;;20.50;68.20;;;;;;5114004;28;20483;-78
2023/05/23 11:17:11;;;;;;;11.20;2.22;;;20.70;69.40;;;;;;5114546;28;20031;-76
2023/05/23 11:19:38;;;;;;;7.78;1.80;;;20.80;66.80;;;;;;5101639;28;20106;-77
2023/05/23 11:22:07;;;;;;;8.40;1.95;;;20.70;66.20;;;;;;5113661;28;20418;-75
2023/05/23 11:24:52;;;;;;;12.30;1.85;;;20.70;65.00;;;;;;5113878;28;20035;-75
2023/05/23 11:27:33;;;;;;;11.38;2.03;;;20.50;65.40;;;;;;5113884;28;20024;-76
2023/05/23 11:30:13;;;;;;;9.38;2.00;;;20.30;66.10;;;;;;5096826;28;20122;-76
2023/05/23 11:32:39;;;;;;;11.13;1.85;;;20.10;66.20;;;;;;5113969;28;20117;-76
2023/05/23 11:35:09;;;;;;;11.63;2.10;;;20.10;67.80;;;;;;5113943;28;20480;-78
2023/05/23 11:37:37;;;;;;;10.65;1.90;;;20.10;66.40;;;;;;5113715;28;20574;-75
2023/05/23 11:40:25;;;;;;;8.85;1.58;;;20.30;68.20;;;;;;5114260;28;20039;-76
2023/05/23 11:42:50;;;;;;;8.00;1.77;;;20.30;66.50;;;;;;5113975;28;20440;-75
2023/05/23 11:45:19;;;;;;;8.30;1.88;;;20.30;65.40;;;;;;5095876;28;20036;-75
2023/05/23 11:47:44;;;;;;;8.02;1.50;;;20.30;65.40;;;;;;5095184;28;20498;-78
2023/05/23 11:50:10;;;;;;;10.75;1.58;;;20.40;65.10;;;;;;5096140;28;20036;-74
2023/05/23 11:52:36;;;;;;;9.02;2.03;;;20.50;64.30;;;;;;5095224;28;20130;-76
2023/05/23 11:55:02;;;;;;;13.00;2.15;;;20.40;65.80;;;;;;5113331;28;20475;-75
2023/05/23 11:57:28;;;;;;;8.63;2.00;;;20.50;66.10;;;;;;5113392;28;20040;-75
2023/05/23 11:59:54;;;;;;;10.80;1.90;;;20.60;67.00;;;;;;5095573;28;20024;-75
2023/05/23 12:02:21;;;;;;;9.27;2.15;;;20.50;66.40;;;;;;5113704;28;20032;-75
2023/05/23 12:04:48;;;;;;;13.32;2.10;;;20.40;67.40;;;;;;5094965;28;20071;-75
2023/05/23 12:07:17;;;;;;;8.50;1.95;;;20.60;65.60;;;;;;5094449;28;20502;-75
2023/05/23 12:09:43;;;;;;;8.93;1.92;;;20.70;64.50;;;;;;5091611;28;20105;-75
2023/05/23 12:12:11;;;;;;;10.10;2.17;;;20.80;63.60;;;;;;5112300;28;20062;-74
2023/05/23 12:14:43;;;;;;;10.55;2.00;;;20.40;63.10;;;;;;5111625;28;20294;-74
2023/05/23 12:17:10;;;;;;;5.72;1.65;;;20.30;63.80;;;;;;5094279;28;20027;-78
2023/05/23 12:19:36;;;;;;;9.43;1.50;;;20.40;63.10;;;;;;5074803;28;20071;-75
2023/05/23 12:22:08;;;;;;;7.15;1.30;;;20.50;62.80;;;;;;5074320;28;20036;-75
2023/05/23 12:24:35;;;;;;;10.57;1.58;;;20.60;63.60;;;;;;5111384;28;20024;-76
2023/05/23 12:27:02;;;;;;;11.57;1.67;;;20.70;62.50;;;;;;5095443;28;20032;-76
2023/05/23 12:29:29;;;;;;;8.50;1.40;;;20.50;61.40;;;;;;5087839;28;20380;-76
2023/05/23 12:31:57;;;;;;;7.30;1.73;;;20.60;61.80;;;;;;5094733;28;20040;-76
2023/05/23 12:34:23;;;;;;;9.48;1.42;;;20.60;62.50;;;;;;5094738;28;20032;-75
2023/05/23 12:36:50;;;;;;;9.10;1.40;;;20.70;62.00;;;;;;5111688;28;20039;-76
2023/05/23 12:39:29;;;;;;;8.80;1.83;;;20.70;62.00;;;;;;5113307;28;20062;-76
2023/05/23 12:42:07;;;;;;;8.38;1.45;;;20.50;62.70;;;;;;5096016;28;20026;-76
2023/05/23 12:44:33;;;;;;;5.78;1.58;;;20.40;65.50;;;;;;5095513;28;20491;-76